Time;durP1;ratioP1;P1;durP2;ratioP2;P2;SDS_P1;SDS_P2;PMS_P1;PMS_P2;Temp;Humidity;BMP_temperature;BMP_pressure;BME280_temperature;BME280_humidity;BME280_pressure;Samples;Min_cycle;Max_cycle;Signal;HPM_P1;HPM_P2
2021/11/04 00:02:32;;;;;;;0.30;0.22;;;11.50;64.40;;;;;;6201103;28;20109;-69
2021/11/04 00:05:34;;;;;;;0.60;0.40;;;11.40;64.30;;;;;;6201857;28;20452;-69
2021/11/04 00:08:35;;;;;;;0.38;0.32;;;11.40;64.40;;;;;;6217037;28;20368;-69
2021/11/04 00:11:37;;;;;;;0.65;0.50;;;11.50;64.60;;;;;;6201626;28;20088;-69
2021/11/04 00:14:38;;;;;;;0.68;0.55;;;11.50;64.60;;;;;;6200621;28;20038;-69
2021/11/04 00:17:40;;;;;;;1.10;0.55;;;11.50;64.50;;;;;;6201593;28;20026;-71
2021/11/04 00:20:41;;;;;;;12.55;0.93;;;11.60;64.50;;;;;;6201029;28;20038;-69
2021/11/04 00:23:42;;;;;;;1.08;0.73;;;11.60;64.50;;;;;;6200584;28;20415;-69
2021/11/04 00:26:45;;;;;;;0.55;0.55;;;11.70;64.50;;;;;;6200838;28;20459;-69
2021/11/04 00:29:46;;;;;;;0.95;0.57;;;11.70;64.30;;;;;;6198428;28;20089;-69
2021/11/04 00:32:51;;;;;;;0.98;0.82;;;11.70;64.20;;;;;;6182953;28;20115;-69
2021/11/04 00:35:52;;;;;;;1.60;0.82;;;11.70;64.10;;;;;;6201270;28;20069;-69
2021/11/04 00:38:52;;;;;;;0.85;0.50;;;11.80;64.20;;;;;;6199540;28;20080;-69
2021/11/04 00:41:53;;;;;;;0.70;0.60;;;11.80;64.50;;;;;;6199755;28;20137;-69
2021/11/04 00:44:54;;;;;;;1.63;0.77;;;11.70;64.90;;;;;;6200119;28;20049;-70
2021/11/04 00:47:55;;;;;;;0.50;0.40;;;11.60;65.20;;;;;;6201438;28;20031;-70
2021/11/04 00:50:56;;;;;;;0.65;0.30;;;11.50;65.30;;;;;;6183451;28;20363;-69
2021/11/04 00:53:57;;;;;;;1.98;0.50;;;11.40;65.70;;;;;;6200044;28;20030;-69
2021/11/04 00:56:58;;;;;;;0.52;0.40;;;11.40;66.10;;;;;;6201148;28;20107;-69
2021/11/04 00:59:59;;;;;;;0.30;0.30;;;11.30;66.10;;;;;;6200298;28;20026;-69
2021/11/04 01:03:00;;;;;;;0.10;0.10;;;11.30;66.20;;;;;;6200976;28;20030;-69
2021/11/04 01:06:01;;;;;;;0.10;0.10;;;11.20;66.00;;;;;;6200090;28;20077;-70
2021/11/04 01:09:02;;;;;;;0.28;0.20;;;11.20;66.00;;;;;;6200926;28;20038;-69
2021/11/04 01:12:03;;;;;;;0.30;0.22;;;11.10;65.80;;;;;;6200750;28;20022;-70
2021/11/04 01:15:06;;;;;;;0.40;0.30;;;11.10;65.30;;;;;;6205294;28;20057;-69
2021/11/04 01:18:08;;;;;;;0.20;0.15;;;11.10;65.00;;;;;;6205493;28;20161;-69
2021/11/04 01:21:09;;;;;;;0.10;0.10;;;11.00;64.80;;;;;;6204882;28;20045;-70
2021/11/04 01:24:10;;;;;;;0.35;0.20;;;11.00;64.40;;;;;;6220812;28;20088;-70
2021/11/04 01:27:11;;;;;;;0.20;0.20;;;11.00;64.10;;;;;;6205326;28;20030;-70
2021/11/04 01:30:12;;;;;;;0.32;0.10;;;11.10;64.10;;;;;;6204308;28;20030;-69
2021/11/04 01:33:14;;;;;;;0.30;0.10;;;11.10;64.70;;;;;;6220603;28;20038;-69
2021/11/04 01:36:15;;;;;;;0.28;0.15;;;11.20;63.80;;;;;;6204907;28;20466;-70
2021/11/04 01:39:16;;;;;;;0.10;0.10;;;11.20;63.60;;;;;;6203974;28;20073;-69
2021/11/04 01:42:19;;;;;;;0.10;0.10;;;11.20;63.40;;;;;;6205084;28;20058;-70
2021/11/04 01:45:20;;;;;;;0.03;0.03;;;11.30;63.20;;;;;;6203952;28;20041;-70
2021/11/04 01:48:21;;;;;;;0.20;0.20;;;11.30;62.90;;;;;;6204433;28;20030;-69
2021/11/04 01:51:22;;;;;;;0.20;0.20;;;11.40;62.80;;;;;;6203885;28;20035;-70
2021/11/04 01:54:23;;;;;;;0.82;0.47;;;11.40;62.60;;;;;;6204779;28;20030;-69
2021/11/04 01:57:23;;;;;;;1.30;0.77;;;11.50;62.40;;;;;;6203804;28;20030;-70
2021/11/04 02:00:28;;;;;;;0.93;0.68;;;11.60;62.20;;;;;;6203644;28;20084;-70
2021/11/04 02:03:42;;;;;;;1.52;1.08;;;11.60;62.10;;;;;;6203557;28;20038;-70
2021/11/04 02:06:57;;;;;;;1.55;0.80;;;11.70;62.20;;;;;;6203650;28;20034;-70
2021/11/04 02:10:19;;;;;;;1.25;0.60;;;11.80;62.40;;;;;;6204420;28;20364;-70
2021/11/04 02:13:29;;;;;;;0.88;0.73;;;11.80;62.20;;;;;;6204768;28;20129;-70
2021/11/04 02:16:32;;;;;;;1.05;0.73;;;11.80;62.10;;;;;;6203316;28;20018;-70
2021/11/04 02:19:45;;;;;;;0.75;0.70;;;11.80;62.10;;;;;;6186695;28;20026;-70
2021/11/04 02:23:00;;;;;;;1.10;0.82;;;11.80;62.20;;;;;;6198393;28;20181;-70
2021/11/04 02:26:03;;;;;;;2.65;1.05;;;11.80;62.30;;;;;;6196382;28;20030;-70
2021/11/04 02:29:06;;;;;;;7.50;1.27;;;11.80;62.80;;;;;;6200035;28;20064;-70
2021/11/04 02:32:09;;;;;;;2.35;0.90;;;11.70;62.90;;;;;;6203855;28;20092;-70
2021/11/04 02:35:11;;;;;;;3.85;0.95;;;11.70;63.10;;;;;;6202967;28;20041;-71
2021/11/04 02:38:12;;;;;;;1.38;0.88;;;11.70;63.30;;;;;;6203774;28;20031;-70
2021/11/04 02:41:13;;;;;;;1.65;1.25;;;11.70;63.40;;;;;;6202737;28;20435;-70
2021/11/04 02:44:14;;;;;;;1.08;0.75;;;11.70;63.40;;;;;;6202603;28;20050;-70
2021/11/04 02:47:15;;;;;;;2.58;1.10;;;11.80;63.40;;;;;;6203458;28;20514;-69
2021/11/04 02:50:18;;;;;;;0.43;0.43;;;11.80;63.30;;;;;;6201999;28;20088;-69
2021/11/04 02:53:22;;;;;;;1.27;0.70;;;11.90;63.10;;;;;;6202454;28;20041;-70
2021/11/04 02:56:23;;;;;;;1.10;0.80;;;11.90;62.80;;;;;;6202586;28;20037;-70
2021/11/04 02:59:26;;;;;;;1.85;1.48;;;11.90;62.10;;;;;;6202448;28;20034;-69
2021/11/04 03:02:27;;;;;;;3.92;1.70;;;12.00;62.10;;;;;;6202277;28;20035;-69
2021/11/04 03:05:28;;;;;;;1.73;1.50;;;12.00;62.40;;;;;;6218421;28;20069;-70
2021/11/04 03:08:30;;;;;;;2.85;1.50;;;12.00;62.60;;;;;;6202193;28;20455;-70
2021/11/04 03:11:31;;;;;;;2.45;1.42;;;12.10;62.90;;;;;;6201584;28;20363;-69
2021/11/04 03:14:32;;;;;;;3.30;1.60;;;12.10;63.00;;;;;;6201977;28;20030;-69
2021/11/04 03:17:35;;;;;;;2.60;1.75;;;12.20;63.10;;;;;;6202874;28;20220;-69
2021/11/04 03:20:37;;;;;;;3.42;1.83;;;12.20;63.10;;;;;;6201435;28;20026;-70
2021/11/04 03:23:38;;;;;;;3.28;1.73;;;12.20;62.90;;;;;;6201862;28;20088;-70
2021/11/04 03:26:42;;;;;;;3.92;1.92;;;12.30;63.00;;;;;;6202651;28;20022;-70
2021/11/04 03:29:43;;;;;;;3.30;1.88;;;12.30;63.00;;;;;;6217505;28;20392;-69
2021/11/04 03:32:46;;;;;;;2.15;1.23;;;12.30;63.10;;;;;;6201471;28;20041;-69
2021/11/04 03:35:48;;;;;;;3.92;1.60;;;12.30;63.00;;;;;;6201391;28;20085;-70
2021/11/04 03:38:50;;;;;;;2.78;1.05;;;12.30;62.90;;;;;;6200827;28;20037;-69
2021/11/04 03:41:55;;;;;;;1.20;0.90;;;12.20;62.80;;;;;;6201502;28;20477;-69
2021/11/04 03:44:59;;;;;;;1.40;0.60;;;12.20;62.20;;;;;;6201198;28;20105;-69
2021/11/04 03:48:00;;;;;;;3.00;0.77;;;12.20;61.80;;;;;;6201166;28;20065;-70
2021/11/04 03:51:01;;;;;;;1.15;0.82;;;12.20;61.70;;;;;;6184523;28;20030;-70
2021/11/04 03:54:02;;;;;;;1.00;0.77;;;12.20;61.50;;;;;;6202003;28;20042;-70
2021/11/04 03:57:03;;;;;;;2.63;0.70;;;12.20;61.40;;;;;;6201101;28;20022;-70
2021/11/04 04:00:07;;;;;;;1.83;0.80;;;12.20;61.40;;;;;;6201868;28;20037;-68
2021/11/04 04:03:08;;;;;;;1.20;0.80;;;12.20;62.30;;;;;;6201815;28;20359;-69
2021/11/04 04:06:10;;;;;;;2.10;0.82;;;12.20;61.50;;;;;;6201214;28;20030;-70
2021/11/04 04:09:11;;;;;;;2.15;0.70;;;12.20;61.30;;;;;;6184582;28;20042;-69
2021/11/04 04:12:12;;;;;;;1.15;0.75;;;12.20;61.10;;;;;;6201654;28;20058;-69
2021/11/04 04:15:13;;;;;;;1.88;1.00;;;12.30;60.90;;;;;;6201668;28;20418;-69
2021/11/04 04:18:14;;;;;;;2.05;0.95;;;12.20;60.70;;;;;;6200540;28;20125;-69
2021/11/04 04:21:15;;;;;;;0.88;0.68;;;12.20;61.00;;;;;;6200162;28;20034;-69
2021/11/04 04:24:16;;;;;;;1.23;0.77;;;12.20;61.40;;;;;;6200798;28;20030;-70
2021/11/04 04:27:18;;;;;;;1.73;1.13;;;12.20;61.70;;;;;;6201368;28;20073;-70
2021/11/04 04:30:19;;;;;;;4.68;1.30;;;12.10;61.80;;;;;;6201318;28;20084;-70
2021/11/04 04:33:20;;;;;;;1.83;0.90;;;12.10;61.80;;;;;;6201303;28;20109;-70
2021/11/04 04:36:21;;;;;;;2.90;1.30;;;12.20;61.60;;;;;;6200247;28;20465;-70
2021/11/04 04:39:22;;;;;;;4.72;1.58;;;12.10;61.40;;;;;;6196021;28;20049;-69
2021/11/04 04:42:23;;;;;;;2.38;1.40;;;12.10;61.50;;;;;;6200875;28;20045;-69
2021/11/04 04:45:23;;;;;;;3.53;1.83;;;12.20;61.70;;;;;;6201232;28;20185;-69
2021/11/04 04:48:24;;;;;;;3.45;1.73;;;12.20;62.10;;;;;;6202958;28;20059;-71
2021/11/04 04:51:25;;;;;;;2.03;1.52;;;12.20;62.30;;;;;;6206271;28;20026;-70
2021/11/04 04:54:26;;;;;;;4.18;1.45;;;12.20;62.30;;;;;;6206159;28;20058;-69
2021/11/04 04:57:27;;;;;;;1.52;1.15;;;12.10;62.30;;;;;;6204415;28;20033;-69
2021/11/04 05:00:29;;;;;;;2.70;1.73;;;12.20;62.60;;;;;;6205031;28;20030;-70
2021/11/04 05:03:30;;;;;;;1.27;1.15;;;12.20;62.80;;;;;;6205896;28;20030;-70
2021/11/04 05:06:31;;;;;;;2.13;1.23;;;12.10;62.70;;;;;;6205762;28;20383;-69
2021/11/04 05:09:31;;;;;;;2.55;1.65;;;12.20;62.80;;;;;;6204482;28;20434;-70
2021/11/04 05:12:33;;;;;;;3.15;1.73;;;12.20;62.90;;;;;;6188459;28;20030;-69
2021/11/04 05:15:33;;;;;;;7.03;1.58;;;12.10;62.90;;;;;;6205648;28;20058;-70
2021/11/04 05:18:37;;;;;;;1.67;1.33;;;12.20;63.00;;;;;;6204274;28;20124;-70
2021/11/04 05:21:38;;;;;;;3.83;1.10;;;12.20;62.90;;;;;;6204583;28;20056;-70
2021/11/04 05:24:38;;;;;;;2.30;1.30;;;12.20;62.80;;;;;;6220905;28;20034;-71
2021/11/04 05:27:47;;;;;;;1.80;1.20;;;12.20;62.60;;;;;;6220386;28;20030;-70
2021/11/04 05:30:48;;;;;;;3.30;1.13;;;12.20;62.50;;;;;;6204395;28;20045;-69
2021/11/04 05:33:53;;;;;;;2.08;1.40;;;12.20;62.60;;;;;;6205258;28;20426;-70
2021/11/04 05:36:54;;;;;;;1.95;1.40;;;12.20;62.50;;;;;;6188015;28;20041;-70
2021/11/04 05:39:54;;;;;;;4.20;2.10;;;12.20;62.50;;;;;;6204291;28;20459;-70
2021/11/04 05:42:55;;;;;;;2.08;1.40;;;12.20;62.60;;;;;;6203893;28;20076;-70
2021/11/04 05:45:56;;;;;;;3.08;1.75;;;12.20;62.60;;;;;;6187571;28;20026;-70
2021/11/04 05:48:57;;;;;;;2.10;1.38;;;12.20;62.70;;;;;;6203556;28;20368;-69
2021/11/04 05:51:58;;;;;;;3.42;1.73;;;12.20;62.80;;;;;;6220181;28;20030;-70
2021/11/04 05:55:00;;;;;;;1.98;1.45;;;12.20;62.80;;;;;;6204708;28;20026;-68
2021/11/04 05:58:00;;;;;;;4.20;1.95;;;12.30;62.90;;;;;;6203746;28;20410;-69
2021/11/04 06:01:02;;;;;;;2.50;1.80;;;12.30;62.90;;;;;;6203293;28;20030;-70
2021/11/04 06:04:04;;;;;;;2.83;1.83;;;12.20;62.80;;;;;;6203565;28;20050;-68
2021/11/04 06:07:05;;;;;;;1.88;1.58;;;12.20;62.80;;;;;;6204475;28;20528;-70
2021/11/04 06:10:06;;;;;;;2.60;1.25;;;12.20;62.90;;;;;;6187272;28;20081;-70
2021/11/04 06:13:07;;;;;;;2.28;1.70;;;12.20;62.90;;;;;;6203381;28;20030;-70
2021/11/04 06:16:13;;;;;;;2.42;1.33;;;12.20;62.60;;;;;;6187104;28;20368;-69
2021/11/04 06:19:14;;;;;;;8.45;1.30;;;12.10;62.30;;;;;;6202804;28;20128;-70
2021/11/04 06:22:15;;;;;;;1.65;1.25;;;12.10;62.00;;;;;;6203234;28;20026;-70
2021/11/04 06:25:16;;;;;;;3.72;1.25;;;12.10;61.90;;;;;;6219477;28;20344;-70
2021/11/04 06:28:16;;;;;;;1.98;1.38;;;12.10;61.60;;;;;;6203876;28;20063;-69
2021/11/04 06:31:17;;;;;;;8.13;1.48;;;12.10;61.60;;;;;;6199470;28;20045;-69
2021/11/04 06:34:18;;;;;;;3.20;0.90;;;12.10;61.40;;;;;;6202784;28;20057;-69
2021/11/04 06:37:21;;;;;;;0.98;0.80;;;12.10;61.00;;;;;;6186272;28;20087;-69
2021/11/04 06:40:26;;;;;;;1.77;0.77;;;12.10;60.60;;;;;;6202429;28;20049;-69
2021/11/04 06:43:27;;;;;;;1.13;0.70;;;12.10;60.40;;;;;;6203377;28;20030;-69
2021/11/04 06:46:31;;;;;;;3.75;1.08;;;12.10;60.30;;;;;;6202305;28;20475;-70
2021/11/04 06:49:37;;;;;;;1.58;0.60;;;12.00;60.00;;;;;;6203060;28;20112;-70
2021/11/04 06:53:04;;;;;;;1.83;1.05;;;12.00;60.10;;;;;;6203098;28;20113;-69
2021/11/04 06:56:05;;;;;;;2.90;1.10;;;12.00;59.90;;;;;;6195195;28;20042;-69
2021/11/04 06:59:22;;;;;;;2.67;1.30;;;12.00;59.60;;;;;;6202767;28;20030;-70
2021/11/04 07:02:36;;;;;;;1.50;1.13;;;12.00;59.60;;;;;;6201925;28;20435;-70
2021/11/04 07:05:37;;;;;;;1.40;1.10;;;12.10;59.60;;;;;;6202928;28;20034;-70
2021/11/04 07:08:43;;;;;;;3.22;1.40;;;12.10;59.60;;;;;;6203065;28;20034;-70
2021/11/04 07:11:45;;;;;;;4.22;1.92;;;12.20;59.60;;;;;;6202463;28;20041;-70
2021/11/04 07:14:47;;;;;;;7.18;1.88;;;12.20;59.70;;;;;;6202447;28;20053;-70
2021/11/04 07:17:48;;;;;;;4.13;2.05;;;12.20;60.00;;;;;;6202167;28;20062;-70
2021/11/04 07:21:07;;;;;;;7.15;2.58;;;12.20;60.40;;;;;;6201335;28;20022;-69
2021/11/04 07:24:13;;;;;;;3.35;1.95;;;12.10;61.20;;;;;;6185089;28;20109;-72
2021/11/04 07:27:15;;;;;;;3.33;1.98;;;12.10;61.40;;;;;;6202055;28;20022;-69
2021/11/04 07:30:18;;;;;;;2.72;1.75;;;12.10;61.50;;;;;;6201049;28;20037;-68
2021/11/04 07:33:21;;;;;;;4.80;2.92;;;12.20;61.60;;;;;;6217315;28;20038;-69
2021/11/04 07:36:24;;;;;;;4.53;2.78;;;12.20;61.50;;;;;;6201930;28;20114;-70
2021/11/04 07:39:25;;;;;;;3.55;2.47;;;12.30;61.70;;;;;;6200445;28;20121;-70
2021/11/04 07:42:26;;;;;;;3.78;1.90;;;12.30;61.50;;;;;;6201551;28;20030;-70
2021/11/04 07:45:30;;;;;;;2.55;1.70;;;12.30;61.40;;;;;;6201925;28;20026;-71
2021/11/04 07:48:31;;;;;;;2.42;1.63;;;12.40;61.30;;;;;;6201225;28;20104;-70
2021/11/04 07:51:35;;;;;;;6.00;2.25;;;12.50;61.20;;;;;;6216970;28;20415;-70
2021/11/04 07:54:36;;;;;;;3.95;1.98;;;12.50;61.20;;;;;;6200484;28;20518;-70
2021/11/04 07:57:39;;;;;;;2.90;1.80;;;12.50;61.10;;;;;;6201761;28;20026;-70
2021/11/04 08:00:41;;;;;;;6.22;2.00;;;12.60;61.00;;;;;;6201594;28;20176;-69
2021/11/04 08:03:43;;;;;;;3.63;1.92;;;12.60;60.90;;;;;;6216172;28;20125;-71
2021/11/04 08:06:44;;;;;;;4.93;2.00;;;12.70;60.90;;;;;;6200826;28;20034;-70
2021/11/04 08:09:45;;;;;;;2.90;1.55;;;12.70;60.50;;;;;;6201393;28;20104;-70
2021/11/04 08:12:46;;;;;;;5.75;2.25;;;12.70;60.40;;;;;;6200071;28;20113;-70
2021/11/04 08:15:48;;;;;;;3.72;1.92;;;12.70;60.20;;;;;;6201373;28;20052;-69
2021/11/04 08:18:49;;;;;;;2.47;1.67;;;12.70;60.20;;;;;;6199910;28;20018;-69
2021/11/04 08:21:50;;;;;;;5.45;2.20;;;12.70;60.20;;;;;;6200109;28;20026;-69
2021/11/04 08:24:51;;;;;;;14.55;2.40;;;12.70;60.20;;;;;;6199529;28;20037;-70
2021/11/04 08:27:52;;;;;;;8.77;2.20;;;12.70;60.10;;;;;;6183766;28;20023;-70
2021/11/04 08:30:53;;;;;;;4.70;2.22;;;12.70;60.00;;;;;;6176968;28;20030;-69
2021/11/04 08:33:54;;;;;;;4.53;2.35;;;12.80;60.10;;;;;;6196479;28;20049;-69
2021/11/04 08:36:55;;;;;;;5.38;2.47;;;12.80;60.10;;;;;;6200954;28;20026;-69
2021/11/04 08:39:56;;;;;;;6.05;3.40;;;12.80;60.20;;;;;;6200602;28;20057;-70
2021/11/04 08:42:58;;;;;;;4.65;2.08;;;12.90;60.20;;;;;;6200383;28;20034;-70
2021/11/04 08:45:59;;;;;;;9.18;2.53;;;12.90;60.10;;;;;;6200615;28;20037;-70
2021/11/04 08:49:02;;;;;;;2.45;1.63;;;13.00;60.00;;;;;;6199416;28;20472;-69
2021/11/04 08:52:05;;;;;;;3.03;1.88;;;13.10;59.90;;;;;;6215693;28;20042;-70
2021/11/04 08:55:08;;;;;;;5.70;2.17;;;13.20;59.90;;;;;;6199650;28;20120;-70
2021/11/04 08:58:09;;;;;;;8.00;1.92;;;13.30;59.80;;;;;;6200555;28;20027;-70
2021/11/04 09:01:10;;;;;;;4.75;1.50;;;13.40;59.50;;;;;;6200407;28;20031;-70
2021/11/04 09:04:12;;;;;;;2.90;1.90;;;13.50;59.10;;;;;;6200308;28;20066;-70
2021/11/04 09:07:21;;;;;;;2.45;1.48;;;13.60;59.00;;;;;;6200423;28;20026;-69
2021/11/04 09:10:22;;;;;;;2.95;1.60;;;13.60;58.90;;;;;;6199334;28;20045;-70
2021/11/04 09:13:24;;;;;;;7.32;2.10;;;13.50;58.60;;;;;;6199745;28;20091;-69
2021/11/04 09:16:26;;;;;;;2.58;1.70;;;13.40;58.70;;;;;;6215583;28;20038;-69
2021/11/04 09:19:27;;;;;;;5.78;2.13;;;13.40;58.90;;;;;;6198951;28;20404;-71
2021/11/04 09:22:28;;;;;;;3.20;2.03;;;13.30;58.70;;;;;;6198896;28;20026;-69
2021/11/04 09:25:29;;;;;;;3.28;1.75;;;13.20;58.70;;;;;;6200124;28;20022;-69
2021/11/04 09:28:30;;;;;;;3.08;2.10;;;13.10;58.70;;;;;;6199134;28;20026;-70
2021/11/04 09:31:32;;;;;;;2.20;1.45;;;13.10;58.80;;;;;;6199880;28;20023;-70
2021/11/04 09:34:38;;;;;;;4.35;1.75;;;13.10;58.90;;;;;;6201130;28;20041;-71
2021/11/04 09:37:39;;;;;;;8.18;2.05;;;13.20;58.90;;;;;;6204742;28;20105;-69
2021/11/04 09:40:40;;;;;;;11.40;1.73;;;13.20;58.90;;;;;;6219494;28;20563;-70
2021/11/04 09:43:42;;;;;;;2.65;1.48;;;13.30;58.80;;;;;;6204306;28;20044;-70
2021/11/04 09:46:43;;;;;;;2.20;1.40;;;13.30;58.50;;;;;;6219595;28;20464;-70
2021/11/04 09:49:44;;;;;;;2.05;1.60;;;13.40;58.10;;;;;;6203258;28;20500;-69
2021/11/04 09:52:49;;;;;;;3.63;1.80;;;13.50;57.60;;;;;;6203568;28;20030;-70
2021/11/04 09:55:50;;;;;;;2.15;1.55;;;13.60;56.60;;;;;;6203554;28;20034;-69
2021/11/04 09:58:51;;;;;;;2.88;1.30;;;14.00;55.90;;;;;;6202809;28;20036;-70
2021/11/04 10:01:51;;;;;;;2.40;1.40;;;14.20;54.90;;;;;;6202918;28;20046;-70
2021/11/04 10:05:02;;;;;;;3.13;1.95;;;14.60;54.20;;;;;;6203813;28;20034;-70
2021/11/04 10:08:03;;;;;;;3.80;1.40;;;14.80;53.20;;;;;;6203995;28;20371;-70
2021/11/04 10:11:13;;;;;;;2.90;1.30;;;15.00;52.30;;;;;;6202888;28;20061;-70
2021/11/04 10:14:18;;;;;;;5.78;1.30;;;15.10;51.60;;;;;;6203035;28;20452;-70
2021/11/04 10:17:36;;;;;;;2.72;1.15;;;15.10;51.20;;;;;;6203242;28;20062;-70
2021/11/04 10:20:37;;;;;;;4.27;1.30;;;15.30;50.60;;;;;;6199132;28;20042;-71
2021/11/04 10:23:48;;;;;;;2.33;1.42;;;15.40;50.20;;;;;;6202569;28;20034;-69
2021/11/04 10:26:54;;;;;;;2.53;1.23;;;15.50;49.70;;;;;;6202404;28;20026;-69
2021/11/04 10:29:55;;;;;;;2.38;1.30;;;15.70;49.70;;;;;;6202942;28;20030;-70
2021/11/04 10:32:56;;;;;;;2.92;1.60;;;15.90;48.90;;;;;;6202779;28;20432;-70
2021/11/04 10:36:20;;;;;;;2.67;1.40;;;16.00;48.50;;;;;;6186028;28;20036;-69
2021/11/04 10:39:28;;;;;;;1.48;1.10;;;16.10;47.90;;;;;;6203221;28;20348;-70
2021/11/04 10:42:29;;;;;;;4.00;1.58;;;16.30;47.10;;;;;;6202096;28;20041;-70
2021/11/04 10:45:29;;;;;;;2.75;1.30;;;16.40;46.20;;;;;;6201989;28;20034;-71
2021/11/04 10:48:33;;;;;;;4.25;1.75;;;16.60;46.00;;;;;;6201515;28;20030;-70
2021/11/04 10:51:35;;;;;;;3.50;1.50;;;16.90;45.20;;;;;;6217650;28;20380;-69
2021/11/04 10:54:49;;;;;;;8.50;1.27;;;17.20;44.70;;;;;;6202756;28;20026;-71
2021/11/04 10:57:50;;;;;;;4.07;1.23;;;17.60;43.50;;;;;;6203085;28;20073;-71
2021/11/04 11:00:51;;;;;;;4.15;1.42;;;17.90;41.40;;;;;;6201700;28;20030;-70
2021/11/04 11:04:02;;;;;;;1.48;1.15;;;18.10;40.60;;;;;;6201878;28;20033;-70
2021/11/04 11:07:03;;;;;;;4.78;1.45;;;18.50;40.20;;;;;;6202038;28;20023;-70
2021/11/04 11:10:04;;;;;;;4.68;1.70;;;19.00;39.20;;;;;;6201066;28;20367;-70
2021/11/04 11:13:07;;;;;;;6.43;1.40;;;19.30;38.20;;;;;;6201465;28;20466;-70
2021/11/04 11:16:08;;;;;;;2.60;0.98;;;19.80;37.30;;;;;;6201264;28;20034;-70
2021/11/04 11:19:10;;;;;;;4.30;1.00;;;20.10;36.40;;;;;;6201800;28;20018;-72
2021/11/04 11:22:15;;;;;;;2.08;1.25;;;20.40;35.50;;;;;;6202607;28;20097;-70
2021/11/04 11:25:16;;;;;;;4.80;1.58;;;20.70;34.90;;;;;;6201167;28;20114;-71
2021/11/04 11:28:18;;;;;;;2.25;1.55;;;20.80;34.50;;;;;;6201766;28;20037;-71
2021/11/04 11:31:21;;;;;;;3.13;1.58;;;20.70;34.70;;;;;;6216490;28;20189;-71
2021/11/04 11:34:25;;;;;;;2.90;1.75;;;20.50;35.80;;;;;;6178341;28;20158;-71
2021/11/04 11:37:26;;;;;;;4.22;1.70;;;20.90;35.80;;;;;;6176522;28;20030;-71
2021/11/04 11:40:30;;;;;;;5.00;2.08;;;21.20;35.50;;;;;;6176552;28;20066;-71
2021/11/04 11:43:53;;;;;;;4.03;1.88;;;21.60;34.70;;;;;;6192593;28;20045;-71
2021/11/04 11:47:03;;;;;;;3.72;1.92;;;21.60;34.10;;;;;;6192658;28;20062;-71
2021/11/04 11:50:31;;;;;;;2.50;1.67;;;21.50;34.50;;;;;;6191280;28;20034;-71
2021/11/04 11:53:37;;;;;;;2.00;1.17;;;20.90;35.80;;;;;;6200142;28;20030;-72
2021/11/04 11:56:38;;;;;;;5.55;1.55;;;20.20;36.90;;;;;;6200134;28;20317;-71
2021/11/04 11:59:53;;;;;;;1.50;1.40;;;19.60;37.50;;;;;;6199864;28;20026;-71
2021/11/04 12:02:54;;;;;;;2.28;1.27;;;19.10;38.40;;;;;;6200865;28;20069;-73
2021/11/04 12:05:55;;;;;;;3.25;1.02;;;18.50;39.00;;;;;;6184000;28;20035;-71
2021/11/04 12:08:58;;;;;;;2.30;1.30;;;17.90;39.90;;;;;;6200186;28;20080;-70
2021/11/04 12:11:59;;;;;;;1.98;1.23;;;17.50;40.70;;;;;;6201007;28;20463;-70
2021/11/04 12:15:04;;;;;;;1.27;1.05;;;16.90;41.30;;;;;;6181349;28;20033;-70
2021/11/04 12:18:18;;;;;;;1.65;0.88;;;16.50;42.20;;;;;;6175769;28;20031;-71
2021/11/04 12:21:23;;;;;;;1.15;1.05;;;16.30;42.80;;;;;;6176857;28;20023;-70
2021/11/04 12:24:25;;;;;;;1.13;0.82;;;16.10;43.20;;;;;;6175491;28;20062;-70
2021/11/04 12:27:48;;;;;;;2.33;0.88;;;15.90;43.60;;;;;;6176535;28;20034;-70
2021/11/04 12:30:48;;;;;;;1.13;0.60;;;15.80;43.70;;;;;;6164912;28;20482;-71
2021/11/04 12:33:57;;;;;;;1.85;0.55;;;15.70;43.50;;;;;;6198973;28;20038;-70
2021/11/04 12:37:10;;;;;;;1.38;0.85;;;15.70;43.20;;;;;;6200378;28;20022;-71
2021/11/04 12:40:14;;;;;;;0.75;0.60;;;15.60;43.00;;;;;;6183023;28;20463;-71
2021/11/04 12:43:16;;;;;;;3.00;1.02;;;15.60;42.90;;;;;;6199990;28;20120;-70
2021/11/04 12:46:23;;;;;;;0.60;0.60;;;15.60;42.90;;;;;;6200245;28;20448;-71
2021/11/04 12:49:30;;;;;;;1.35;1.25;;;15.60;42.90;;;;;;6200005;28;20436;-70
2021/11/04 12:52:32;;;;;;;1.10;0.77;;;15.70;42.90;;;;;;6199377;28;20097;-71
2021/11/04 12:55:33;;;;;;;3.60;1.25;;;15.60;42.90;;;;;;6214734;28;20077;-71
2021/11/04 12:58:34;;;;;;;2.05;0.80;;;15.50;43.00;;;;;;6215663;28;20034;-70
2021/11/04 13:01:56;;;;;;;0.57;0.57;;;15.60;42.80;;;;;;6182431;28;20065;-70
2021/11/04 13:04:59;;;;;;;1.02;0.70;;;15.60;42.50;;;;;;6198560;28;20035;-70
2021/11/04 13:08:05;;;;;;;0.50;0.50;;;15.60;42.30;;;;;;6198939;28;20042;-71
2021/11/04 13:11:18;;;;;;;0.25;0.25;;;15.60;42.10;;;;;;6204323;28;20105;-69
2021/11/04 13:14:19;;;;;;;1.50;0.65;;;15.60;42.20;;;;;;6204543;28;20132;-70
2021/11/04 13:17:29;;;;;;;0.50;0.50;;;15.70;42.20;;;;;;6205126;28;20024;-70
2021/11/04 13:20:45;;;;;;;2.78;0.57;;;15.70;41.80;;;;;;6203451;28;20042;-70
2021/11/04 13:23:46;;;;;;;0.57;0.55;;;15.80;41.80;;;;;;6220092;28;20026;-70
2021/11/04 13:26:50;;;;;;;0.95;0.43;;;15.80;41.60;;;;;;6204765;28;20030;-70
2021/11/04 13:29:56;;;;;;;0.60;0.57;;;15.80;41.60;;;;;;6204401;28;20096;-70
2021/11/04 13:32:57;;;;;;;1.20;0.60;;;15.70;41.60;;;;;;6203060;28;20038;-71
2021/11/04 13:36:04;;;;;;;1.42;0.60;;;15.70;41.90;;;;;;6203688;28;20356;-69
2021/11/04 13:39:13;;;;;;;1.95;0.80;;;15.70;42.30;;;;;;6203499;28;20490;-70
2021/11/04 13:42:22;;;;;;;1.08;0.60;;;15.70;42.50;;;;;;6204393;28;20114;-69
2021/11/04 13:45:23;;;;;;;0.32;0.32;;;15.60;42.90;;;;;;6202889;28;20026;-69
2021/11/04 13:48:28;;;;;;;1.10;0.77;;;15.50;43.10;;;;;;6202591;28;20034;-70
2021/11/04 13:51:37;;;;;;;1.58;0.70;;;15.50;43.40;;;;;;6204712;28;20038;-70
2021/11/04 13:54:44;;;;;;;0.93;0.80;;;15.50;44.40;;;;;;6219070;28;20464;-69
2021/11/04 13:57:49;;;;;;;7.13;1.70;;;15.40;44.10;;;;;;6203896;28;20371;-69
2021/11/04 14:01:05;;;;;;;3.15;0.80;;;15.30;44.60;;;;;;6202928;28;20392;-70
2021/11/04 14:04:13;;;;;;;2.35;1.13;;;15.20;45.20;;;;;;6203044;28;20023;-70
2021/11/04 14:07:31;;;;;;;1.35;0.90;;;15.20;45.70;;;;;;6203747;28;20097;-71
2021/11/04 14:10:32;;;;;;;2.70;0.85;;;15.20;46.00;;;;;;6201320;28;20027;-70
2021/11/04 14:13:53;;;;;;;1.40;0.90;;;15.10;46.20;;;;;;6178621;28;20368;-70
2021/11/04 14:17:04;;;;;;;0.60;0.52;;;15.00;46.40;;;;;;6179762;28;20082;-72
2021/11/04 14:20:05;;;;;;;1.38;1.15;;;14.90;46.60;;;;;;6192388;28;20526;-69
2021/11/04 14:23:06;;;;;;;1.52;0.60;;;14.90;46.70;;;;;;6202067;28;20427;-70
2021/11/04 14:26:07;;;;;;;1.15;0.77;;;14.90;46.60;;;;;;6203587;28;20026;-70
2021/11/04 14:29:09;;;;;;;1.77;0.63;;;14.80;46.50;;;;;;6202405;28;20045;-70
2021/11/04 14:32:11;;;;;;;0.88;0.50;;;14.70;46.50;;;;;;6203331;28;20056;-70
2021/11/04 14:35:12;;;;;;;0.40;0.40;;;14.60;46.60;;;;;;6202088;28;20117;-71
2021/11/04 14:38:13;;;;;;;1.20;0.75;;;14.60;46.70;;;;;;6202720;28;20039;-71
2021/11/04 14:41:14;;;;;;;1.50;0.70;;;14.50;46.70;;;;;;6186147;28;20042;-70
2021/11/04 14:44:15;;;;;;;6.90;0.88;;;14.50;46.70;;;;;;6203227;28;20045;-70
2021/11/04 14:47:16;;;;;;;1.20;0.70;;;14.60;46.80;;;;;;6202114;28;20027;-71
2021/11/04 14:50:17;;;;;;;0.68;0.55;;;14.60;46.70;;;;;;6201632;28;20153;-71
2021/11/04 14:53:19;;;;;;;2.03;0.77;;;14.70;46.70;;;;;;6217936;28;20038;-70
2021/11/04 14:56:21;;;;;;;0.70;0.60;;;14.70;46.50;;;;;;6217912;28;20022;-70
2021/11/04 14:59:23;;;;;;;1.65;0.82;;;14.70;46.40;;;;;;6218345;28;20429;-70
2021/11/04 15:02:24;;;;;;;1.77;0.68;;;14.80;46.30;;;;;;6202835;28;20034;-70
2021/11/04 15:05:25;;;;;;;0.73;0.55;;;14.80;46.00;;;;;;6202859;28;20176;-70
2021/11/04 15:08:27;;;;;;;1.10;0.70;;;14.70;45.80;;;;;;6201736;28;20348;-69
2021/11/04 15:11:28;;;;;;;1.35;0.75;;;14.70;45.90;;;;;;6202857;28;20034;-70
2021/11/04 15:14:29;;;;;;;2.08;0.90;;;14.60;46.00;;;;;;6202815;28;20530;-70
2021/11/04 15:17:30;;;;;;;2.80;0.90;;;14.60;46.10;;;;;;6201271;28;20031;-69
2021/11/04 15:20:31;;;;;;;1.27;0.73;;;14.50;46.10;;;;;;6201600;28;20026;-70
2021/11/04 15:23:32;;;;;;;1.80;0.55;;;14.50;46.10;;;;;;6200511;28;20037;-70
2021/11/04 15:26:33;;;;;;;2.28;0.90;;;14.50;46.00;;;;;;6202649;28;20037;-70
2021/11/04 15:29:34;;;;;;;4.60;0.90;;;14.50;45.80;;;;;;6202308;28;20062;-69
2021/11/04 15:32:35;;;;;;;0.80;0.40;;;14.40;45.70;;;;;;6201939;28;20034;-70
2021/11/04 15:35:36;;;;;;;0.82;0.70;;;14.30;45.60;;;;;;6217121;28;20073;-70
2021/11/04 15:38:37;;;;;;;4.65;1.38;;;14.30;45.70;;;;;;6184959;28;20052;-70
2021/11/04 15:41:37;;;;;;;1.48;0.60;;;14.30;45.90;;;;;;6184375;28;20390;-70
2021/11/04 15:44:38;;;;;;;1.20;0.60;;;14.30;45.90;;;;;;6201090;28;20041;-69
2021/11/04 15:47:39;;;;;;;2.40;0.80;;;14.30;45.80;;;;;;6201791;28;20034;-69
2021/11/04 15:50:40;;;;;;;4.35;0.93;;;14.20;45.70;;;;;;6200234;28;20127;-71
2021/11/04 15:53:42;;;;;;;2.70;0.90;;;14.20;45.80;;;;;;6200587;28;20440;-70